createdAt,value
2023-10-29T00:00:51.754Z,16.16
2023-10-29T00:05:53.865Z,16.11
2023-10-29T00:10:55.908Z,16.06
2023-10-29T00:15:57.712Z,15.99
2023-10-29T00:20:59.504Z,15.93
2023-10-29T00:26:01.561Z,15.87
2023-10-29T00:31:03.680Z,15.81
2023-10-29T00:36:05.919Z,15.76
2023-10-29T00:41:07.692Z,15.71
2023-10-29T00:46:10.086Z,15.64
2023-10-29T00:51:11.754Z,15.54
2023-10-29T00:56:13.733Z,15.45
2023-10-29T01:01:15.474Z,15.34
2023-10-29T01:06:17.451Z,15.23
2023-10-29T01:11:19.315Z,15.10
2023-10-29T01:16:21.172Z,14.99
2023-10-29T01:21:23.902Z,14.90
2023-10-29T01:26:25.728Z,14.78
2023-10-29T01:31:27.631Z,14.73
2023-10-29T01:36:29.422Z,14.68
2023-10-29T01:41:31.371Z,14.66
2023-10-29T01:46:33.237Z,14.63
2023-10-29T01:51:34.906Z,14.60
2023-10-29T01:56:36.680Z,14.56
2023-10-29T02:01:38.557Z,14.53
2023-10-29T02:06:40.546Z,14.49
2023-10-29T02:11:42.314Z,14.44
2023-10-29T02:16:44.215Z,14.37
2023-10-29T02:21:46.070Z,14.32
2023-10-29T02:26:47.733Z,14.29
2023-10-29T02:31:49.621Z,14.32
2023-10-29T02:36:51.420Z,14.34
2023-10-29T02:41:54.516Z,14.34
2023-10-29T02:46:56.489Z,14.31
2023-10-29T02:51:58.273Z,14.26
2023-10-29T02:57:00.116Z,14.19
2023-10-29T03:02:03.669Z,14.13
2023-10-29T03:07:05.353Z,14.06
2023-10-29T03:12:07.322Z,13.97
2023-10-29T03:17:08.996Z,13.87
2023-10-29T03:22:10.778Z,13.77
2023-10-29T03:27:12.642Z,13.72
2023-10-29T03:32:14.426Z,13.75
2023-10-29T03:37:16.298Z,13.76
2023-10-29T03:42:18.183Z,13.78
2023-10-29T03:47:20.051Z,13.76
2023-10-29T03:52:22.373Z,13.72
2023-10-29T03:57:24.115Z,13.66
2023-10-29T04:02:25.939Z,13.60
2023-10-29T04:07:27.574Z,13.52
2023-10-29T04:12:29.282Z,13.47
2023-10-29T04:17:31.092Z,13.47
2023-10-29T04:22:33.100Z,13.46
2023-10-29T04:27:34.819Z,13.47
2023-10-29T04:32:36.511Z,13.44
2023-10-29T04:37:38.426Z,13.37
2023-10-29T04:42:40.153Z,13.30
2023-10-29T04:47:42.084Z,13.23
2023-10-29T04:52:43.969Z,13.17
2023-10-29T04:57:45.865Z,13.13
2023-10-29T05:02:47.688Z,13.14
2023-10-29T05:07:49.485Z,13.16
2023-10-29T05:12:51.161Z,13.17
2023-10-29T05:17:53.004Z,13.17
2023-10-29T05:22:54.866Z,13.15
2023-10-29T05:27:57.001Z,13.13
2023-10-29T05:32:58.913Z,13.16
2023-10-29T05:38:00.973Z,13.24
2023-10-29T05:43:02.850Z,13.36
2023-10-29T05:48:04.884Z,13.55
2023-10-29T05:53:06.808Z,13.74
2023-10-29T05:58:08.490Z,13.91
2023-10-29T06:03:10.375Z,14.03
2023-10-29T06:08:12.440Z,14.11
2023-10-29T06:13:14.225Z,14.20
2023-10-29T06:18:16.030Z,14.25
2023-10-29T06:23:17.988Z,14.21
2023-10-29T06:28:19.742Z,14.21
2023-10-29T06:33:21.705Z,14.26
2023-10-29T06:38:23.597Z,14.30
2023-10-29T06:43:25.173Z,14.37
2023-10-29T06:48:27.164Z,14.46
2023-10-29T06:53:29.133Z,14.57
2023-10-29T06:58:31.450Z,14.68
2023-10-29T07:03:36.955Z,14.83
2023-10-29T07:08:39.100Z,14.97
2023-10-29T07:13:41.285Z,15.15
2023-10-29T07:18:43.181Z,15.37
2023-10-29T07:23:45.061Z,15.58
2023-10-29T07:28:46.929Z,15.81
2023-10-29T07:33:48.980Z,16.06
2023-10-29T07:38:50.900Z,16.31
2023-10-29T07:43:52.741Z,16.56
2023-10-29T07:48:54.614Z,16.77
2023-10-29T07:53:58.456Z,17.02
2023-10-29T07:59:01.964Z,17.34
2023-10-29T08:04:03.719Z,17.66
2023-10-29T08:09:05.690Z,17.93
2023-10-29T08:14:07.796Z,18.18
2023-10-29T08:19:09.570Z,18.38
2023-10-29T08:24:11.327Z,18.57
2023-10-29T08:29:13.160Z,18.78
2023-10-29T08:34:14.872Z,18.97
2023-10-29T08:39:16.670Z,19.14
2023-10-29T08:44:18.561Z,19.32
2023-10-29T08:49:20.304Z,19.60
2023-10-29T08:54:22.534Z,19.79
2023-10-29T08:59:24.222Z,19.96
2023-10-29T09:04:26.164Z,20.19
2023-10-29T09:09:28.049Z,20.36
2023-10-29T09:14:29.925Z,20.54
2023-10-29T09:19:31.565Z,20.66
2023-10-29T09:24:33.477Z,20.79
2023-10-29T09:29:35.761Z,20.95
2023-10-29T09:34:37.744Z,21.10
2023-10-29T09:39:41.865Z,21.25
2023-10-29T09:44:43.604Z,21.38
2023-10-29T09:49:45.648Z,21.53
2023-10-29T09:54:47.850Z,21.71
2023-10-29T09:59:49.910Z,21.98
2023-10-29T10:04:51.604Z,22.18
2023-10-29T10:09:54.113Z,22.21
2023-10-29T10:15:05.235Z,22.28
2023-10-29T10:20:07.712Z,22.35
2023-10-29T10:25:21.518Z,22.44
2023-10-29T10:30:29.327Z,22.47
2023-10-29T10:35:48.275Z,22.56
2023-10-29T10:40:57.315Z,22.62
2023-10-29T10:45:59.073Z,22.74
2023-10-29T10:51:01.034Z,22.87
2023-10-29T10:56:04.792Z,23.02
2023-10-29T11:01:24.155Z,23.14
2023-10-29T11:06:28.970Z,23.26
2023-10-29T11:11:34.492Z,23.45
2023-10-29T11:17:03.919Z,23.66
2023-10-29T11:22:22.325Z,23.93
2023-10-29T11:27:37.444Z,24.33
2023-10-29T11:32:39.739Z,24.86
2023-10-29T11:37:42.401Z,25.43
2023-10-29T11:42:44.312Z,26.01
2023-10-29T11:48:08.205Z,26.58
2023-10-29T11:53:25.719Z,27.23
2023-10-29T11:58:27.529Z,27.96
2023-10-29T12:03:29.921Z,28.62
2023-10-29T12:08:32.611Z,29.40
2023-10-29T12:13:41.509Z,30.41
2023-10-29T12:18:43.508Z,31.41
2023-10-29T12:23:45.251Z,32.25
2023-10-29T12:28:46.928Z,32.70
2023-10-29T12:33:56.023Z,33.03
2023-10-29T12:38:57.908Z,33.11
2023-10-29T12:43:59.661Z,32.72
2023-10-29T12:49:05.734Z,31.47
2023-10-29T12:54:20.964Z,29.86
2023-10-29T12:59:23.727Z,28.43
2023-10-29T13:04:26.213Z,27.34
2023-10-29T13:09:27.998Z,26.42
2023-10-29T13:14:29.980Z,25.64
2023-10-29T13:19:31.709Z,25.00
2023-10-29T13:24:33.644Z,24.47
2023-10-29T13:29:35.705Z,24.02
2023-10-29T13:34:37.688Z,23.63
2023-10-29T13:39:39.507Z,23.29
2023-10-29T13:44:41.248Z,23.00
2023-10-29T13:49:43.020Z,22.74
2023-10-29T13:54:44.820Z,22.49
2023-10-29T13:59:48.264Z,22.29
2023-10-29T14:04:52.235Z,22.12
2023-10-29T14:09:54.113Z,21.95
2023-10-29T14:14:55.884Z,21.80
2023-10-29T14:19:58.185Z,21.66
2023-10-29T14:25:00.546Z,21.51
2023-10-29T14:30:02.354Z,21.35
2023-10-29T14:35:04.843Z,21.21
2023-10-29T14:40:07.524Z,21.09
2023-10-29T14:45:09.853Z,20.97
2023-10-29T14:50:15.183Z,20.83
2023-10-29T14:55:16.996Z,20.68
2023-10-29T15:00:18.744Z,20.53
2023-10-29T15:05:20.925Z,20.37
2023-10-29T15:10:22.794Z,20.19
2023-10-29T15:15:29.871Z,20.03
2023-10-29T15:20:32.627Z,19.87
2023-10-29T15:25:34.382Z,19.69
2023-10-29T15:30:36.253Z,19.52
2023-10-29T15:35:38.244Z,19.36
2023-10-29T15:40:45.554Z,19.20
2023-10-29T15:45:47.557Z,19.06
2023-10-29T15:50:50.559Z,18.93
2023-10-29T15:55:52.418Z,18.77
2023-10-29T16:00:54.149Z,18.67
2023-10-29T16:05:56.069Z,18.54
2023-10-29T16:10:57.838Z,18.42
2023-10-29T16:16:01.852Z,18.29
2023-10-29T16:21:04.013Z,18.19
2023-10-29T16:26:05.798Z,18.09
2023-10-29T16:31:07.710Z,17.99
2023-10-29T16:36:09.881Z,17.90
2023-10-29T16:41:17.632Z,17.80
2023-10-29T16:46:19.577Z,17.70
2023-10-29T16:51:21.483Z,17.59
2023-10-29T16:56:23.336Z,17.50
2023-10-29T17:01:27.868Z,17.41
2023-10-29T17:06:30.275Z,17.31
2023-10-29T17:11:32.249Z,17.23
2023-10-29T17:16:34.127Z,17.18
2023-10-29T17:21:35.862Z,17.10
2023-10-29T17:26:38.267Z,17.01
2023-10-29T17:31:40.359Z,16.92
2023-10-29T17:36:42.258Z,16.86
2023-10-29T17:41:44.102Z,16.79
2023-10-29T17:46:46.157Z,16.70
2023-10-29T17:51:48.292Z,16.62
2023-10-29T17:56:50.033Z,16.56
2023-10-29T18:01:51.932Z,16.50
2023-10-29T18:06:54.077Z,16.43
2023-10-29T18:12:00.660Z,16.38
2023-10-29T18:17:02.448Z,16.32
2023-10-29T18:22:04.417Z,16.27
2023-10-29T18:27:06.392Z,16.20
2023-10-29T18:32:09.879Z,16.14
2023-10-29T18:37:11.636Z,16.08
2023-10-29T18:42:14.709Z,16.02
2023-10-29T18:47:17.562Z,15.96
2023-10-29T18:52:19.454Z,15.90
2023-10-29T18:57:27.704Z,15.85
2023-10-29T19:02:29.767Z,15.80
2023-10-29T19:07:35.417Z,15.73
2023-10-29T19:12:37.395Z,15.66
2023-10-29T19:17:39.144Z,15.60
2023-10-29T19:22:41.134Z,15.53
2023-10-29T19:27:42.823Z,15.47
2023-10-29T19:32:44.678Z,15.40
2023-10-29T19:37:46.993Z,15.32
2023-10-29T19:42:48.771Z,15.26
2023-10-29T19:47:50.584Z,15.21
2023-10-29T19:52:53.855Z,15.15
2023-10-29T19:57:58.246Z,15.08
2023-10-29T20:03:00.167Z,15.04
2023-10-29T20:08:02.050Z,14.98
2023-10-29T20:13:04.340Z,14.93
2023-10-29T20:18:07.166Z,14.89
2023-10-29T20:23:09.165Z,14.85
2023-10-29T20:28:11.202Z,14.80
2023-10-29T20:33:13.277Z,14.74
2023-10-29T20:38:15.259Z,14.68
2023-10-29T20:43:17.143Z,14.62
2023-10-29T20:48:19.048Z,14.57
2023-10-29T20:53:21.106Z,14.54
2023-10-29T20:58:22.917Z,14.50
2023-10-29T21:03:24.821Z,14.47
2023-10-29T21:08:26.962Z,14.44
2023-10-29T21:13:31.236Z,14.45
2023-10-29T21:18:33.713Z,14.48
2023-10-29T21:23:35.670Z,14.46
2023-10-29T21:28:37.521Z,14.42
2023-10-29T21:33:41.507Z,14.33
2023-10-29T21:38:45.255Z,14.28
2023-10-29T21:43:46.976Z,14.22
2023-10-29T21:48:48.666Z,14.14
2023-10-29T21:53:50.341Z,14.04
2023-10-29T21:58:52.129Z,13.97
2023-10-29T22:03:54.310Z,13.91
2023-10-29T22:08:56.450Z,13.86
2023-10-29T22:13:58.225Z,13.81
2023-10-29T22:19:00.202Z,13.77
2023-10-29T22:24:02.112Z,13.73
2023-10-29T22:29:03.929Z,13.73
2023-10-29T22:34:05.732Z,13.75
2023-10-29T22:39:07.640Z,13.76
2023-10-29T22:44:09.495Z,13.76
2023-10-29T22:49:11.182Z,13.74
2023-10-29T22:54:13.294Z,13.68
2023-10-29T22:59:15.337Z,13.62
2023-10-29T23:04:17.113Z,13.56
2023-10-29T23:09:18.994Z,13.49
2023-10-29T23:14:20.587Z,13.43
2023-10-29T23:19:22.192Z,13.35
2023-10-29T23:24:23.904Z,13.29
2023-10-29T23:29:25.591Z,13.25
2023-10-29T23:34:27.258Z,13.25
2023-10-29T23:39:29.037Z,13.26
2023-10-29T23:44:31.011Z,13.25
2023-10-29T23:49:32.669Z,13.24
2023-10-29T23:54:34.426Z,13.22
2023-10-29T23:59:36.496Z,13.19
